Aérodrome :
LOGIN :

S'inscrire | Disclaimer

   EN    FR    IT 

 










Légende :    VFR   VFR Marginal   IFR   IFR Intensif   IFR Très Intensif
Visi : 
Plafond : 
>= 8 km
>= 3000ft
5 à 8 km
1000 à 3000 ft
1500m à 5 km
500 à 1000 ft
800 à 1500m
200 à 500 ft
< 800m
< 200 ft
Symboles :   Orages  Brouillard  Fortes neiges  Fortes précipitations  Vent > 20 kt
SIGMETs :   Divers  Orages  Givrage  Turbulence  Onde Orograph.  Cendres Volcan.







- Altitude de l'aérodrome : 512 ft
- Code IATA : URO
- Voir les cartes d'approche


LFOP - Rouen Vallée de Seine

DERNIER METAR :
  • 161500Z AUTO 28013KT 260V320 9999 FEW029 SCT049 BKN062 06/04 Q1001 TEMPO 28025G40KT 2000 TSRA BKN007 BKN015CB

METARs EXPIRÉS :
  • 161430Z AUTO 29017KT 250V320 9999 -RA FEW017/// BKN026/// OVC033/// ///CB 06/04 Q1001 TEMPO 28025G40KT 2000 TSRA BKN007 BKN015CB
  • 161400Z AUTO 27012KT 240V300 9999 SCT018/// BKN025/// BKN060/// ///TCU 07/05 Q1000 TEMPO 28025G40KT 4000 SHRA BKN012 BKN020CB
  • 161330Z AUTO 27013KT 250V310 9999 BKN014/// BKN019/// BKN027/// ///TCU 06/05 Q1001 TEMPO 28025G40KT 4000 SHRA BKN012 BKN020CB
  • 161300Z AUTO 27015KT 9999 SCT019/// BKN024/// OVC030/// ///TCU 07/05 Q1001 TEMPO 28025G40KT 4000 SHRA BKN012 BKN020CB
  • 161230Z AUTO 27021KT 9999 -RA BKN020/// BKN025/// OVC031/// ///TCU 06/04 Q1002 TEMPO 28025G40KT 4000 SHRA BKN012 BKN020CB

TAF TAF LFOP
Valide du 16 à 12h jusqu'au 17 à 12h UTC


161100Z 1612/1712 26016G26KT 9999 BKN025
TEMPO 1612/1712 28025G40KT 4000 SHRA BKN012 BKN020CB
PROB30
TEMPO 1616/1706 2000 TSRA BKN007 BKN015CB
ATIS : +33 2 35 80 80 34
Météo : +33 2 32 86 52 80
Pas de NOTAMs connus pour ce terrain.
2 SIGMETs publiés pour la FIR Paris (LFFF) :
 
Turbulence forte
LFFF SIGMET 6 VALID 161600/162000 LFPW
LFFF PARIS FIR/UIR SEV TURB FCST NW OF LINE N5045 E00245 - N4915 W00015 SFC/FL060 STNR NC=
Turbulence forte
LFFF SIGMET 5 VALID 161200/161600 LFPW
LFFF PARIS FIR/UIR SEV TURB FCST WI N4915 W00015 - N5000 W00015 - N5115 E00200 - N5045 E00245 - N4915 W00015 SFC/FL060 STNR NC=



MET'MAP, la Météo Aéronautique d'un coup d'oeil ! - Copyright ORBIFLY Décembre 2007 - Disclaimer

ORBIFLY MET'MAP TEAM :

Programmation & Développement : Alexandra Zaïnal
Conception & Développement : Baudouin d'Aumeries
Co-Programmation & Développement : Marc-Olivier Méhu
Soutien technique & logistique : Manuel Goepfert

Contact : metmap@orbifly.com




SOURCES & CREDITS :

   NOAA